Time;durP1;ratioP1;P1;durP2;ratioP2;P2;SDS_P1;SDS_P2;PMS_P1;PMS_P2;Temp;Humidity;BMP_temperature;BMP_pressure;BME280_temperature;BME280_humidity;BME280_pressure;Samples;Min_cycle;Max_cycle;Signal;HPM_P1;HPM_P2
2023/07/14 00:01:25;;;;;;;0.93;0.93;;;18.40;64.10;18.40;100864.00;;;;4969015;28;105799;-68
2023/07/14 00:03:51;;;;;;;2.53;0.95;;;18.40;64.30;18.40;100869.00;;;;4973158;28;88929;-66
2023/07/14 00:06:17;;;;;;;1.35;1.13;;;18.30;64.20;18.40;100875.00;;;;4969691;28;87838;-67
2023/07/14 00:08:45;;;;;;;1.33;1.10;;;18.30;64.40;18.40;100879.00;;;;4970718;28;95910;-67
2023/07/14 00:11:15;;;;;;;0.80;0.60;;;18.30;64.60;18.40;100880.00;;;;4969599;28;88004;-66
2023/07/14 00:13:41;;;;;;;0.85;0.77;;;18.30;64.90;18.40;100873.00;;;;4967973;28;87809;-66
2023/07/14 00:16:18;;;;;;;1.75;0.98;;;18.20;65.10;18.30;100874.00;;;;4970656;28;87979;-65
2023/07/14 00:18:43;;;;;;;0.65;0.55;;;18.20;65.50;18.30;100871.00;;;;4973765;28;89702;-66
2023/07/14 00:21:18;;;;;;;0.98;0.70;;;18.20;65.50;18.30;100871.00;;;;4969578;28;88723;-65
2023/07/14 00:23:45;;;;;;;1.23;0.77;;;18.20;65.80;18.20;100876.00;;;;4971692;28;87959;-65
2023/07/14 00:26:17;;;;;;;1.80;0.82;;;18.10;65.80;18.20;100876.00;;;;4968833;28;88125;-66
2023/07/14 00:28:43;;;;;;;1.85;1.00;;;18.10;66.20;18.20;100873.00;;;;4973615;28;88921;-65
2023/07/14 00:31:14;;;;;;;0.75;0.75;;;18.10;66.30;18.10;100876.00;;;;4967531;28;92806;-65
2023/07/14 00:33:43;;;;;;;1.98;0.90;;;18.00;66.40;18.10;100876.00;;;;4967452;28;88022;-65
2023/07/14 00:36:11;;;;;;;1.83;0.85;;;18.00;66.60;18.00;100879.00;;;;4970858;28;87758;-65
2023/07/14 00:38:37;;;;;;;2.47;1.02;;;17.90;66.80;18.00;100873.00;;;;4968209;28;88682;-65
2023/07/14 00:41:09;;;;;;;0.47;0.47;;;17.90;67.00;17.90;100871.00;;;;4974054;28;88097;-65
2023/07/14 00:43:35;;;;;;;4.50;1.15;;;17.80;67.10;17.90;100870.00;;;;4969860;28;87976;-65
2023/07/14 00:46:01;;;;;;;1.52;1.00;;;17.80;67.50;17.80;100875.00;;;;4967410;28;86883;-65
2023/07/14 00:48:29;;;;;;;2.42;1.00;;;17.70;67.70;17.80;100866.00;;;;4968254;28;87831;-65
2023/07/14 00:51:11;;;;;;;0.73;0.50;;;17.70;67.90;17.70;100865.00;;;;4968201;28;88737;-65
2023/07/14 00:53:43;;;;;;;1.52;1.02;;;17.70;68.10;17.70;100873.00;;;;4948838;28;88853;-66
2023/07/14 00:56:14;;;;;;;1.08;0.75;;;17.60;68.20;17.70;100866.00;;;;4968402;28;87887;-66
2023/07/14 00:58:49;;;;;;;2.90;1.00;;;17.60;68.20;17.70;100863.00;;;;4963727;28;90651;-66
2023/07/14 01:01:24;;;;;;;1.05;0.95;;;17.60;68.40;17.70;100861.00;;;;4971795;28;88095;-66
2023/07/14 01:03:55;;;;;;;0.73;0.73;;;17.60;68.40;17.70;100862.00;;;;4969004;28;87726;-67
2023/07/14 01:06:36;;;;;;;0.77;0.77;;;17.60;68.60;17.70;100867.00;;;;4966569;28;92775;-66
2023/07/14 01:09:08;;;;;;;0.95;0.80;;;17.60;68.80;17.70;100859.00;;;;4970525;28;88964;-66
2023/07/14 01:11:43;;;;;;;1.65;1.20;;;17.60;68.80;17.70;100862.00;;;;4966767;28;88991;-65
2023/07/14 01:14:19;;;;;;;0.80;0.77;;;17.60;69.00;17.70;100861.00;;;;4967521;28;98266;-66
2023/07/14 01:16:47;;;;;;;1.10;0.80;;;17.60;69.10;17.60;100866.00;;;;4972704;28;87900;-66
2023/07/14 01:19:24;;;;;;;1.02;0.60;;;17.50;69.10;17.60;100867.00;;;;4967592;28;90102;-66
2023/07/14 01:22:19;;;;;;;0.57;0.57;;;17.50;69.30;17.60;100863.00;;;;4966788;28;110846;-66
2023/07/14 01:24:55;;;;;;;1.85;1.00;;;17.50;69.90;17.50;100865.00;;;;4966747;28;87835;-66
2023/07/14 01:27:30;;;;;;;1.50;0.85;;;17.40;70.40;17.50;100857.00;;;;4969278;28;88581;-66
2023/07/14 01:29:56;;;;;;;3.50;1.55;;;17.40;70.40;17.40;100858.00;;;;4967935;28;116991;-65
2023/07/14 01:32:24;;;;;;;0.70;0.65;;;17.40;70.60;17.40;100856.00;;;;4970310;28;102512;-66
2023/07/14 01:34:50;;;;;;;1.15;1.05;;;17.30;70.80;17.40;100864.00;;;;4971304;28;87965;-66
2023/07/14 01:37:19;;;;;;;0.70;0.70;;;17.30;71.20;17.30;100864.00;;;;4969187;28;90974;-65
2023/07/14 01:39:47;;;;;;;0.93;0.52;;;17.20;71.50;17.30;100857.00;;;;4970323;28;105256;-64
2023/07/14 01:42:13;;;;;;;5.18;1.15;;;17.20;71.60;17.20;100864.00;;;;4971273;28;87734;-67
2023/07/14 01:44:42;;;;;;;1.55;1.30;;;17.10;71.70;17.20;100866.00;;;;4970328;28;88766;-65
2023/07/14 01:47:11;;;;;;;2.67;1.10;;;17.10;71.90;17.10;100866.00;;;;4977685;28;88510;-64
2023/07/14 01:49:44;;;;;;;0.82;0.77;;;17.10;72.80;17.10;100872.00;;;;4972112;28;108942;-64
2023/07/14 01:52:18;;;;;;;0.80;0.73;;;17.00;72.00;17.00;100871.00;;;;4971381;28;87900;-66
2023/07/14 01:54:50;;;;;;;0.75;0.45;;;17.00;72.20;17.00;100868.00;;;;4974800;28;101512;-66
2023/07/14 01:57:21;;;;;;;0.85;0.70;;;16.90;72.40;16.90;100879.00;;;;4975819;28;99152;-66
2023/07/14 01:59:52;;;;;;;2.50;0.95;;;16.80;72.50;16.80;100886.00;;;;4972019;28;110304;-66
2023/07/14 02:02:26;;;;;;;2.67;1.38;;;16.80;72.80;16.80;100889.00;;;;4968000;28;88533;-66
2023/07/14 02:04:52;;;;;;;0.52;0.52;;;16.70;73.00;16.70;100881.00;;;;4976096;28;89470;-66
2023/07/14 02:07:18;;;;;;;1.00;0.90;;;16.60;73.10;16.70;100878.00;;;;4966869;28;96631;-66
2023/07/14 02:09:45;;;;;;;0.63;0.63;;;16.60;73.30;16.60;100886.00;;;;4975412;28;88861;-65
2023/07/14 02:12:27;;;;;;;1.10;0.95;;;16.60;73.50;16.50;100884.00;;;;4974772;28;89122;-65
2023/07/14 02:15:09;;;;;;;2.65;1.10;;;16.50;73.90;16.50;100884.00;;;;4975666;28;88351;-65
2023/07/14 02:17:36;;;;;;;3.00;1.67;;;16.50;74.20;16.50;100887.00;;;;4974919;28;88027;-65
2023/07/14 02:20:13;;;;;;;1.52;0.88;;;16.40;74.50;16.40;100882.00;;;;4968474;28;109101;-65
2023/07/14 02:22:39;;;;;;;1.00;0.60;;;16.40;74.80;16.30;100884.00;;;;4973335;28;107030;-65
2023/07/14 02:25:10;;;;;;;1.83;1.42;;;16.30;75.90;16.30;100883.00;;;;4968537;28;107962;-65
2023/07/14 02:27:35;;;;;;;5.15;1.60;;;16.30;75.50;16.20;100888.00;;;;4968544;28;98931;-65
2023/07/14 02:30:19;;;;;;;1.85;0.85;;;16.20;76.20;16.10;100893.00;;;;4969440;28;118309;-65
2023/07/14 02:33:00;;;;;;;1.05;0.95;;;16.10;76.50;16.00;100887.00;;;;4967022;28;88877;-65
2023/07/14 02:35:43;;;;;;;1.63;1.08;;;16.00;76.70;15.90;100887.00;;;;4973339;28;89058;-64
2023/07/14 02:38:14;;;;;;;1.25;1.15;;;15.90;77.30;15.90;100897.00;;;;4973268;28;87708;-66
2023/07/14 02:40:53;;;;;;;2.15;1.02;;;15.90;77.60;15.80;100888.00;;;;4970170;28;111571;-65
2023/07/14 02:43:22;;;;;;;1.33;1.00;;;15.80;78.00;15.80;100893.00;;;;4970056;28;95598;-65
2023/07/14 02:46:11;;;;;;;2.47;1.10;;;15.70;78.10;15.70;100889.00;;;;4968091;28;102845;-66
2023/07/14 02:48:40;;;;;;;0.90;0.70;;;15.70;78.60;15.70;100894.00;;;;4974441;28;87975;-64
2023/07/14 02:51:07;;;;;;;1.23;1.23;;;15.60;79.10;15.60;100901.00;;;;4970407;28;106075;-64
2023/07/14 02:53:33;;;;;;;2.92;1.25;;;15.60;79.30;15.60;100897.00;;;;4970344;28;88360;-64
2023/07/14 02:55:59;;;;;;;3.25;1.25;;;15.50;79.40;15.50;100888.00;;;;4968840;28;110448;-65
2023/07/14 02:58:24;;;;;;;1.30;1.17;;;15.50;79.80;15.40;100895.00;;;;4972833;28;88218;-65
2023/07/14 03:01:00;;;;;;;0.95;0.88;;;15.40;80.00;15.40;100886.00;;;;4970430;28;118706;-65
2023/07/14 03:03:27;;;;;;;3.08;1.20;;;15.40;80.50;15.30;100902.00;;;;4967426;28;88761;-65
2023/07/14 03:05:54;;;;;;;2.20;1.10;;;15.30;80.60;15.30;100901.00;;;;4971094;28;95098;-65
2023/07/14 03:08:20;;;;;;;2.00;1.40;;;15.30;81.00;15.20;100899.00;;;;4971738;28;109566;-65
2023/07/14 03:10:49;;;;;;;0.85;0.85;;;15.20;81.10;15.20;100906.00;;;;4969770;28;89162;-65
2023/07/14 03:13:16;;;;;;;1.08;0.98;;;15.20;81.50;15.10;100913.00;;;;4974937;28;89289;-66
2023/07/14 03:15:43;;;;;;;2.13;1.48;;;15.10;81.70;15.10;100901.00;;;;4968644;28;87987;-66
2023/07/14 03:18:09;;;;;;;1.13;1.00;;;15.10;81.90;15.10;100897.00;;;;4965863;28;87397;-66
2023/07/14 03:20:37;;;;;;;1.58;1.10;;;15.10;82.20;15.10;100893.00;;;;4974333;28;118329;-66
2023/07/14 03:23:03;;;;;;;1.25;0.93;;;15.00;82.40;15.00;100898.00;;;;4968351;28;89003;-66
2023/07/14 03:25:29;;;;;;;1.90;1.20;;;15.00;82.60;15.00;100896.00;;;;4969539;28;103986;-66
2023/07/14 03:27:55;;;;;;;1.30;1.20;;;15.00;83.00;15.00;100893.00;;;;4969370;28;108657;-65
2023/07/14 03:30:20;;;;;;;3.50;1.27;;;15.00;83.40;15.00;100894.00;;;;4968886;28;117818;-65
2023/07/14 03:32:46;;;;;;;1.90;1.30;;;15.00;83.70;15.00;100898.00;;;;4969656;28;88307;-66
2023/07/14 03:35:12;;;;;;;2.63;1.60;;;14.90;84.00;14.90;100893.00;;;;4970875;28;110139;-66
2023/07/14 03:37:38;;;;;;;1.83;1.15;;;14.90;84.50;14.90;100901.00;;;;4969852;28;108810;-66
2023/07/14 03:40:05;;;;;;;3.72;1.48;;;14.90;84.90;14.90;100892.00;;;;4968892;28;88817;-66
2023/07/14 03:42:34;;;;;;;2.22;1.27;;;14.90;85.30;14.90;100898.00;;;;4970054;28;88529;-66
2023/07/14 03:44:59;;;;;;;1.65;1.52;;;14.80;85.50;14.90;100895.00;;;;4971889;28;87698;-66
2023/07/14 03:47:26;;;;;;;2.85;1.20;;;14.80;85.80;14.90;100898.00;;;;4970977;28;107685;-66
2023/07/14 03:49:52;;;;;;;2.70;1.30;;;14.80;85.90;14.90;100888.00;;;;4967586;28;90037;-66
2023/07/14 03:52:17;;;;;;;1.67;0.93;;;14.80;86.20;14.90;100903.00;;;;4969190;28;117630;-66
2023/07/14 03:54:44;;;;;;;2.13;1.43;;;14.80;86.50;14.90;100890.00;;;;4966482;28;109717;-66
2023/07/14 03:57:10;;;;;;;1.73;1.25;;;14.80;86.90;14.90;100893.00;;;;4972320;28;87671;-66
2023/07/14 03:59:35;;;;;;;1.53;0.80;;;14.90;87.20;14.90;100888.00;;;;4965512;28;103520;-65
2023/07/14 04:02:01;;;;;;;1.35;1.10;;;14.80;87.70;14.90;100889.00;;;;4969723;28;116275;-65
2023/07/14 04:04:28;;;;;;;1.45;1.17;;;14.90;87.60;15.00;100900.00;;;;4965326;28;109309;-67
2023/07/14 04:06:55;;;;;;;1.45;1.02;;;14.90;87.90;15.00;100893.00;;;;4965484;28;87258;-65
2023/07/14 04:09:20;;;;;;;1.52;0.82;;;14.90;88.00;15.00;100901.00;;;;4970595;28;87710;-65
2023/07/14 04:11:46;;;;;;;3.30;1.52;;;15.00;88.30;15.10;100902.00;;;;4967432;28;117538;-65
2023/07/14 04:14:12;;;;;;;6.57;1.83;;;15.00;88.50;15.20;100899.00;;;;4968374;28;88824;-65
2023/07/14 04:16:37;;;;;;;1.27;1.17;;;15.10;88.80;15.20;100902.00;;;;4964806;28;88418;-65
2023/07/14 04:19:04;;;;;;;7.90;1.60;;;15.10;88.90;15.30;100902.00;;;;4969930;28;89096;-65
2023/07/14 04:21:30;;;;;;;4.10;1.55;;;15.20;89.10;15.40;100896.00;;;;4966229;28;115944;-65
2023/07/14 04:23:57;;;;;;;3.05;1.23;;;15.30;89.20;15.40;100895.00;;;;4965815;28;87847;-65
2023/07/14 04:26:26;;;;;;;2.05;1.35;;;15.40;90.00;15.50;100906.00;;;;4965334;28;87918;-66
2023/07/14 04:28:51;;;;;;;1.90;1.40;;;15.40;89.40;15.60;100904.00;;;;4965705;28;111594;-66
2023/07/14 04:31:18;;;;;;;1.08;0.98;;;15.50;89.50;15.70;100904.00;;;;4968801;28;118301;-66
2023/07/14 04:33:49;;;;;;;2.03;1.45;;;15.60;89.70;15.70;100913.00;;;;4969898;28;88037;-66
2023/07/14 04:36:16;;;;;;;1.80;1.33;;;15.60;89.80;15.80;100917.00;;;;4962861;28;88035;-66
2023/07/14 04:38:58;;;;;;;1.50;1.40;;;15.50;89.70;15.90;100917.00;;;;4967420;28;111703;-66
2023/07/14 04:41:23;;;;;;;2.08;1.08;;;15.80;90.00;16.00;100911.00;;;;4963320;28;106648;-66
2023/07/14 04:43:49;;;;;;;6.55;2.05;;;15.80;90.00;16.10;100913.00;;;;4965800;28;110113;-66
2023/07/14 04:46:15;;;;;;;5.43;1.98;;;15.90;90.00;16.20;100918.00;;;;4965254;28;108871;-66
2023/07/14 04:48:40;;;;;;;2.47;1.33;;;16.00;90.00;16.30;100920.00;;;;4966277;28;116478;-66
2023/07/14 04:51:06;;;;;;;2.38;0.95;;;16.10;90.00;16.40;100919.00;;;;4961680;28;104393;-66
2023/07/14 04:53:32;;;;;;;1.58;1.17;;;16.30;90.00;16.50;100922.00;;;;4965168;28;111597;-67
2023/07/14 04:55:57;;;;;;;2.70;1.58;;;16.30;89.90;16.60;100917.00;;;;4963813;28;108035;-66
2023/07/14 04:58:23;;;;;;;2.17;1.40;;;16.40;90.40;16.70;100921.00;;;;4961082;28;117930;-66
2023/07/14 05:00:49;;;;;;;2.22;1.38;;;16.50;90.00;16.80;100918.00;;;;4963001;28;117343;-66
2023/07/14 05:03:15;;;;;;;2.10;1.23;;;16.60;90.00;16.80;100911.00;;;;4961707;28;111400;-65
2023/07/14 05:05:41;;;;;;;5.63;1.17;;;16.70;89.90;17.00;100915.00;;;;4960804;28;87960;-65
2023/07/14 05:08:07;;;;;;;1.75;1.65;;;16.80;89.90;17.10;100916.00;;;;4964734;28;111895;-65
2023/07/14 05:10:34;;;;;;;3.63;1.35;;;16.90;89.70;17.20;100919.00;;;;4962936;27;88630;-65
2023/07/14 05:13:00;;;;;;;3.72;1.05;;;17.00;89.50;17.30;100919.00;;;;4967623;28;87912;-66
2023/07/14 05:15:26;;;;;;;6.38;1.30;;;17.20;89.30;17.50;100928.00;;;;4969424;28;107577;-66
2023/07/14 05:17:54;;;;;;;9.75;1.77;;;17.30;89.00;17.70;100920.00;;;;4968637;28;89252;-66
2023/07/14 05:20:20;;;;;;;2.80;1.40;;;17.50;88.70;17.90;100916.00;;;;4967359;28;87338;-65
2023/07/14 05:22:50;;;;;;;2.67;1.40;;;17.70;88.60;18.00;100917.00;;;;4969208;28;87807;-65
2023/07/14 05:25:17;;;;;;;1.50;1.20;;;17.90;87.90;18.20;100912.00;;;;4970880;28;87736;-66
2023/07/14 05:27:43;;;;;;;0.95;0.95;;;18.00;87.50;18.40;100912.00;;;;4969498;28;93640;-65
2023/07/14 05:30:14;;;;;;;1.27;1.17;;;18.20;87.00;18.60;100928.00;;;;4966814;28;90099;-65
2023/07/14 05:32:41;;;;;;;2.75;1.10;;;18.40;86.50;18.80;100921.00;;;;4964506;28;88141;-65
2023/07/14 05:35:08;;;;;;;1.02;0.93;;;18.60;85.90;19.00;100917.00;;;;4966984;28;97236;-66
2023/07/14 05:37:33;;;;;;;1.35;1.20;;;18.80;85.40;19.10;100929.00;;;;4969436;28;87891;-66
2023/07/14 05:39:59;;;;;;;1.50;1.38;;;19.00;84.90;19.30;100921.00;;;;4966667;28;117503;-65
2023/07/14 05:42:25;;;;;;;1.08;1.00;;;19.10;84.40;19.50;100923.00;;;;4965834;28;109120;-65
2023/07/14 05:44:51;;;;;;;1.88;1.45;;;19.30;83.70;19.70;100917.00;;;;4969991;28;109480;-64
2023/07/14 05:47:16;;;;;;;1.58;1.30;;;19.50;83.10;19.90;100921.00;;;;4966310;28;108364;-65
2023/07/14 05:49:42;;;;;;;2.25;1.48;;;19.70;82.50;20.20;100920.00;;;;4965946;28;87970;-65
2023/07/14 05:52:10;;;;;;;1.40;1.30;;;19.90;81.70;20.40;100929.00;;;;4963590;28;94972;-65
2023/07/14 05:54:36;;;;;;;2.25;1.45;;;20.10;81.00;20.60;100920.00;;;;4970710;28;88365;-65
2023/07/14 05:57:02;;;;;;;1.50;0.95;;;20.30;80.30;20.70;100932.00;;;;4965278;28;89609;-65
2023/07/14 05:59:28;;;;;;;1.25;1.15;;;20.50;79.50;20.90;100925.00;;;;4964041;28;105777;-65
2023/07/14 06:01:53;;;;;;;1.75;1.50;;;20.70;79.00;21.00;100925.00;;;;4970199;28;89519;-65
2023/07/14 06:04:19;;;;;;;0.88;0.77;;;20.80;78.20;21.20;100927.00;;;;4966702;28;108646;-64
2023/07/14 06:06:45;;;;;;;1.02;0.75;;;20.90;77.30;21.40;100926.00;;;;4965097;28;113783;-65
2023/07/14 06:09:13;;;;;;;0.55;0.55;;;21.10;76.90;21.50;100923.00;;;;4966161;28;115696;-65
2023/07/14 06:11:40;;;;;;;0.63;0.55;;;21.30;76.10;21.80;100920.00;;;;4965836;28;88024;-65
2023/07/14 06:14:06;;;;;;;0.68;0.68;;;21.50;75.50;21.90;100924.00;;;;4966825;28;100161;-65
2023/07/14 06:16:32;;;;;;;4.22;1.65;;;21.70;74.70;22.10;100923.00;;;;4967770;28;117599;-65
2023/07/14 06:18:58;;;;;;;0.80;0.68;;;21.80;73.60;22.20;100917.00;;;;4963994;28;90181;-65
2023/07/14 06:21:24;;;;;;;0.80;0.73;;;22.00;72.90;22.30;100914.00;;;;4968157;28;102995;-65
2023/07/14 06:23:50;;;;;;;1.13;0.60;;;22.20;72.30;22.50;100912.00;;;;4970845;28;109511;-65
2023/07/14 06:26:15;;;;;;;1.35;0.70;;;22.30;71.20;22.70;100911.00;;;;4969202;28;117182;-65
2023/07/14 06:28:42;;;;;;;1.92;1.42;;;22.40;70.10;22.80;100911.00;;;;4967153;28;88410;-65
2023/07/14 06:31:13;;;;;;;1.40;0.85;;;22.60;69.40;22.90;100917.00;;;;4971140;28;87878;-66
2023/07/14 06:33:38;;;;;;;2.10;1.13;;;22.70;68.50;23.00;100918.00;;;;4970549;28;87240;-66
2023/07/14 06:36:05;;;;;;;1.23;1.13;;;22.80;67.90;23.20;100911.00;;;;4970030;28;88322;-66
2023/07/14 06:38:31;;;;;;;2.22;0.55;;;22.90;67.20;23.40;100915.00;;;;4966487;28;88329;-66
2023/07/14 06:41:03;;;;;;;0.60;0.60;;;23.10;66.90;23.60;100912.00;;;;4970534;28;93988;-66
2023/07/14 06:43:33;;;;;;;0.52;0.52;;;23.30;66.10;23.70;100918.00;;;;4970103;28;87833;-66
2023/07/14 06:45:59;;;;;;;0.50;0.50;;;23.50;65.20;23.80;100913.00;;;;4968862;28;88255;-66
2023/07/14 06:48:26;;;;;;;1.27;0.75;;;23.60;64.70;24.00;100912.00;;;;4975495;28;87974;-66
2023/07/14 06:50:52;;;;;;;1.38;0.68;;;23.80;64.20;24.20;100910.00;;;;4973781;28;89291;-65
2023/07/14 06:53:18;;;;;;;0.90;0.50;;;24.00;63.70;24.50;100919.00;;;;4971954;28;88824;-65
2023/07/14 06:55:45;;;;;;;0.57;0.57;;;24.20;63.00;24.70;100920.00;;;;4973565;28;88013;-66
2023/07/14 06:58:11;;;;;;;1.85;0.95;;;24.40;62.40;24.90;100917.00;;;;4970210;28;88232;-68
2023/07/14 07:00:37;;;;;;;1.35;0.65;;;24.70;61.80;25.10;100917.00;;;;4969292;28;96820;-68
2023/07/14 07:03:05;;;;;;;1.08;0.75;;;24.90;61.20;25.40;100913.00;;;;4974839;28;87660;-67
2023/07/14 07:05:37;;;;;;;10.55;9.00;;;25.10;60.30;25.60;100907.00;;;;4971048;28;89187;-67
2023/07/14 07:08:05;;;;;;;3.97;2.17;;;25.30;59.60;25.80;100910.00;;;;4968608;28;89900;-67
2023/07/14 07:10:30;;;;;;;1.38;0.85;;;25.50;59.20;26.00;100914.00;;;;4969609;28;101119;-67
2023/07/14 07:12:56;;;;;;;0.40;0.40;;;25.70;58.60;26.10;100910.00;;;;4969001;28;103472;-67
2023/07/14 07:15:24;;;;;;;1.17;1.08;;;25.80;57.60;26.10;100910.00;;;;4972638;28;116229;-67
2023/07/14 07:17:50;;;;;;;1.13;1.00;;;25.90;57.00;26.30;100911.00;;;;4969644;28;116754;-66
2023/07/14 07:20:16;;;;;;;1.23;0.80;;;26.10;57.00;26.50;100900.00;;;;4968479;28;109800;-68
2023/07/14 07:22:44;;;;;;;1.63;0.80;;;26.20;56.60;26.60;100906.00;;;;4971059;28;109140;-67
2023/07/14 07:25:09;;;;;;;0.85;0.47;;;26.40;55.80;26.70;100902.00;;;;4971111;28;110101;-67
2023/07/14 07:27:35;;;;;;;1.08;0.65;;;26.50;55.40;26.90;100907.00;;;;4967563;28;108568;-65
2023/07/14 07:30:01;;;;;;;1.38;0.82;;;26.70;54.80;27.10;100900.00;;;;4965551;28;110263;-68
2023/07/14 07:32:28;;;;;;;0.75;0.73;;;26.80;54.40;27.30;100906.00;;;;4974850;28;87812;-68
2023/07/14 07:34:59;;;;;;;4.65;4.15;;;27.00;53.90;27.40;100905.00;;;;4967682;28;118394;-68
2023/07/14 07:37:48;;;;;;;1.52;1.02;;;27.20;53.30;27.50;100900.00;;;;4966848;28;87865;-66
2023/07/14 07:40:15;;;;;;;1.70;0.57;;;27.30;52.60;27.70;100901.00;;;;4971940;28;87923;-69
2023/07/14 07:42:41;;;;;;;1.65;0.55;;;27.40;52.60;27.90;100902.00;;;;4972624;28;88057;-68
2023/07/14 07:45:08;;;;;;;0.85;0.43;;;27.60;52.10;28.10;100898.00;;;;4967375;28;89049;-68
2023/07/14 07:47:33;;;;;;;1.17;0.60;;;27.80;51.70;28.20;100892.00;;;;4969282;28;87668;-69
2023/07/14 07:49:59;;;;;;;3.08;2.10;;;28.00;51.30;28.40;100890.00;;;;4964008;28;109533;-68
2023/07/14 07:52:25;;;;;;;0.52;0.50;;;28.10;50.80;28.50;100888.00;;;;4968424;28;102805;-69
2023/07/14 07:54:50;;;;;;;1.80;0.50;;;28.30;50.40;28.60;100886.00;;;;4970169;28;118757;-68
2023/07/14 07:57:16;;;;;;;0.88;0.63;;;28.40;50.00;28.80;100890.00;;;;4964706;28;117082;-68
2023/07/14 07:59:42;;;;;;;0.40;0.40;;;28.50;49.40;28.80;100889.00;;;;4975228;28;96583;-68
2023/07/14 08:02:11;;;;;;;3.40;0.68;;;28.60;49.00;28.80;100886.00;;;;4967458;28;87557;-69
2023/07/14 08:04:38;;;;;;;1.02;0.70;;;28.60;48.00;28.50;100892.00;;;;4968702;28;88108;-67
2023/07/14 08:07:10;;;;;;;2.53;0.38;;;28.50;47.20;28.20;100884.00;;;;4967971;28;88710;-68
2023/07/14 08:09:35;;;;;;;1.20;0.60;;;28.20;47.50;28.20;100881.00;;;;4974931;28;88366;-68
2023/07/14 08:12:02;;;;;;;0.85;0.57;;;28.00;47.90;28.30;100882.00;;;;4968332;28;108385;-68
2023/07/14 08:14:28;;;;;;;0.47;0.30;;;28.10;48.20;28.50;100879.00;;;;4970268;28;88611;-68
2023/07/14 08:16:54;;;;;;;8.82;5.10;;;28.20;48.20;28.70;100879.00;;;;4966892;28;116411;-68
2023/07/14 08:19:19;;;;;;;1.00;0.88;;;28.40;48.20;28.90;100880.00;;;;4964656;28;109288;-68
2023/07/14 08:21:45;;;;;;;1.15;0.73;;;28.60;47.70;29.00;100867.00;;;;4969554;28;89389;-67
2023/07/14 08:24:11;;;;;;;3.05;0.88;;;28.70;47.50;29.10;100873.00;;;;4965598;28;118359;-67
2023/07/14 08:26:38;;;;;;;0.50;0.50;;;28.90;47.30;29.30;100867.00;;;;4967560;28;88634;-68
2023/07/14 08:29:05;;;;;;;0.55;0.55;;;29.00;47.20;29.50;100874.00;;;;4965603;28;102157;-69
2023/07/14 08:31:31;;;;;;;1.23;0.63;;;29.20;47.00;29.60;100858.00;;;;4968662;28;87756;-68
2023/07/14 08:33:57;;;;;;;3.05;2.65;;;29.40;46.80;29.80;100863.00;;;;4965738;28;88224;-69
2023/07/14 08:36:23;;;;;;;0.60;0.55;;;29.50;47.10;29.90;100860.00;;;;4971186;28;118187;-67
2023/07/14 08:38:49;;;;;;;0.63;0.60;;;29.60;46.20;30.10;100872.00;;;;4965172;28;111775;-67
2023/07/14 08:41:35;;;;;;;1.13;0.60;;;29.80;45.70;30.30;100871.00;;;;4968052;28;88179;-67
2023/07/14 08:44:39;;;;;;;0.65;0.50;;;30.00;45.40;30.40;100877.00;;;;4967528;28;89282;-67
2023/07/14 08:47:43;;;;;;;0.28;0.28;;;30.20;45.00;30.60;100870.00;;;;4948346;28;113321;-68
2023/07/14 08:50:19;;;;;;;0.50;0.50;;;30.30;44.90;30.70;100876.00;;;;4973745;28;87923;-67
2023/07/14 08:52:45;;;;;;;1.30;0.70;;;30.40;44.60;30.80;100866.00;;;;4969433;28;88263;-66
2023/07/14 08:55:41;;;;;;;0.30;0.30;;;30.50;43.00;30.60;100875.00;;;;4975273;28;88819;-68
2023/07/14 08:58:20;;;;;;;0.52;0.52;;;30.50;43.00;30.70;100866.00;;;;4961209;28;88441;-68
2023/07/14 09:00:54;;;;;;;0.55;0.38;;;30.40;43.40;31.00;100863.00;;;;4971918;28;87971;-67
2023/07/14 09:03:44;;;;;;;1.45;0.75;;;30.60;43.50;31.20;100860.00;;;;4966929;28;87156;-67
2023/07/14 09:06:24;;;;;;;1.08;0.73;;;30.80;43.20;31.40;100869.00;;;;4974908;28;87984;-67
2023/07/14 09:08:51;;;;;;;2.55;0.77;;;31.00;42.90;31.60;100865.00;;;;4966185;28;89751;-68
2023/07/14 09:11:51;;;;;;;0.73;0.50;;;31.10;41.70;31.30;100858.00;;;;4967838;28;88842;-67
2023/07/14 09:14:56;;;;;;;1.85;0.70;;;31.10;41.00;31.20;100856.00;;;;4947280;28;88067;-68
2023/07/14 09:17:47;;;;;;;0.22;0.22;;;30.90;41.60;31.20;100860.00;;;;4970584;28;89554;-68
2023/07/14 09:20:52;;;;;;;0.52;0.30;;;31.00;41.60;31.10;100868.00;;;;4952080;28;89682;-68
2023/07/14 09:23:50;;;;;;;0.55;0.40;;;30.90;41.30;31.00;100867.00;;;;4973064;28;87840;-67
2023/07/14 09:26:34;;;;;;;1.13;0.63;;;30.80;41.30;30.90;100865.00;;;;4968031;28;87863;-67
2023/07/14 09:29:14;;;;;;;2.25;0.70;;;30.70;41.50;30.80;100856.00;;;;4967823;28;88429;-67
2023/07/14 09:31:51;;;;;;;0.30;0.30;;;30.70;41.60;30.80;100859.00;;;;4965279;28;88045;-67
2023/07/14 09:34:46;;;;;;;0.70;0.50;;;30.60;41.60;30.70;100856.00;;;;4964645;28;87798;-68
2023/07/14 09:37:21;;;;;;;0.80;0.73;;;30.50;41.70;30.70;100861.00;;;;4963407;28;102366;-67
2023/07/14 09:40:15;;;;;;;0.80;0.80;;;30.50;41.70;30.70;100857.00;;;;4973300;28;106875;-67
2023/07/14 09:42:41;;;;;;;0.40;0.40;;;30.40;41.70;30.60;100850.00;;;;4968028;28;87895;-67
2023/07/14 09:45:17;;;;;;;2.85;0.60;;;30.40;41.60;30.60;100849.00;;;;4966826;28;111635;-67
2023/07/14 09:47:48;;;;;;;0.70;0.68;;;30.30;41.70;30.60;100850.00;;;;4970787;28;88058;-66
2023/07/14 09:50:16;;;;;;;1.77;0.98;;;30.30;41.70;30.60;100848.00;;;;4969008;28;110982;-67
2023/07/14 09:52:57;;;;;;;0.93;0.55;;;30.30;41.80;30.70;100844.00;;;;4970221;28;91587;-67
2023/07/14 09:55:24;;;;;;;0.43;0.43;;;30.30;41.60;30.70;100836.00;;;;4965285;28;87913;-67
2023/07/14 09:57:54;;;;;;;1.52;0.35;;;30.30;41.60;30.70;100836.00;;;;4972175;28;87121;-67
2023/07/14 10:00:26;;;;;;;3.40;0.93;;;30.40;41.60;30.80;100832.00;;;;4969552;28;88685;-68
2023/07/14 10:03:07;;;;;;;0.20;0.20;;;30.30;41.30;30.90;100826.00;;;;4973699;28;87699;-68
2023/07/14 10:06:05;;;;;;;1.00;0.50;;;30.50;41.20;30.80;100833.00;;;;4971703;28;88700;-68
2023/07/14 10:08:48;;;;;;;0.88;0.60;;;30.50;41.10;30.70;100828.00;;;;4973560;28;88028;-68
2023/07/14 10:11:16;;;;;;;0.50;0.50;;;30.40;41.00;30.60;100821.00;;;;4972577;28;88576;-67
2023/07/14 10:14:26;;;;;;;0.55;0.45;;;30.30;40.80;30.50;100824.00;;;;4968659;28;88156;-67
2023/07/14 10:16:56;;;;;;;0.35;0.35;;;30.20;40.70;30.40;100815.00;;;;4965359;28;87847;-68
2023/07/14 10:19:38;;;;;;;1.48;1.02;;;30.10;40.90;30.30;100813.00;;;;4970505;28;87837;-68
2023/07/14 10:22:16;;;;;;;0.57;0.50;;;30.00;40.90;30.20;100813.00;;;;4969343;28;98359;-68
2023/07/14 10:24:56;;;;;;;0.30;0.30;;;29.90;41.00;30.10;100803.00;;;;4973992;28;108233;-67
2023/07/14 10:27:29;;;;;;;0.43;0.28;;;29.80;41.00;30.00;100803.00;;;;4972222;28;87875;-68
2023/07/14 10:29:57;;;;;;;1.40;1.00;;;29.70;41.10;29.90;100797.00;;;;4972054;28;103462;-66
2023/07/14 10:32:34;;;;;;;0.47;0.40;;;29.60;41.30;29.80;100786.00;;;;4970523;28;118786;-67
2023/07/14 10:35:22;;;;;;;0.70;0.50;;;29.50;41.30;29.70;100779.00;;;;4970423;28;104065;-67
2023/07/14 10:38:08;;;;;;;2.20;0.40;;;29.40;41.30;29.80;100776.00;;;;4970205;28;87770;-67
2023/07/14 10:40:39;;;;;;;1.45;0.55;;;29.40;41.30;30.00;100774.00;;;;4976506;28;88322;-68
2023/07/14 10:43:21;;;;;;;2.78;0.70;;;29.50;41.20;30.30;100770.00;;;;4973334;28;89037;-68
2023/07/14 10:46:00;;;;;;;0.45;0.30;;;29.70;40.50;30.30;100773.00;;;;4972809;28;111351;-67
2023/07/14 10:48:32;;;;;;;1.73;0.65;;;29.80;40.20;30.30;100761.00;;;;4973350;28;89192;-67
2023/07/14 10:51:27;;;;;;;0.38;0.38;;;29.80;40.00;30.60;100763.00;;;;4971801;28;87122;-67
2023/07/14 10:54:02;;;;;;;0.43;0.40;;;29.90;40.50;30.80;100762.00;;;;4973243;28;87999;-68
2023/07/14 10:56:49;;;;;;;0.88;0.57;;;30.10;40.40;31.00;100766.00;;;;4975938;28;93820;-68
2023/07/14 10:59:26;;;;;;;0.35;0.35;;;30.30;40.40;31.40;100763.00;;;;4973375;28;88871;-67
2023/07/14 11:02:23;;;;;;;0.82;0.30;;;30.60;40.20;32.00;100766.00;;;;4969107;28;93385;-68